Time;durP1;ratioP1;P1;durP2;ratioP2;P2;SDS_P1;SDS_P2;PMS_P1;PMS_P2;Temp;Humidity;BMP_temperature;BMP_pressure;BME280_temperature;BME280_humidity;BME280_pressure;Samples;Min_cycle;Max_cycle;Signal;HPM_P1;HPM_P2
2023/06/08 00:02:23;;;;;;;16.50;5.00;;;;;;;17.26;68.00;100324.49;110111;1264;23074;-60
2023/06/08 00:04:54;;;;;;;12.50;4.80;;;;;;;17.19;68.08;100323.46;110167;1273;22151;-62
2023/06/08 00:07:25;;;;;;;14.80;5.40;;;;;;;17.19;67.80;100325.87;110116;1271;22890;-62
2023/06/08 00:09:58;;;;;;;13.70;5.50;;;;;;;17.21;68.13;100327.04;110148;1271;22152;-61
2023/06/08 00:12:29;;;;;;;15.50;5.60;;;;;;;17.17;68.36;100323.23;110135;1273;23000;-62
2023/06/08 00:15:00;;;;;;;15.60;5.60;;;;;;;17.11;68.34;100324.75;110206;1270;22254;-62
2023/06/08 00:17:32;;;;;;;17.60;6.20;;;;;;;17.10;68.54;100326.66;110152;1264;23052;-62
2023/06/08 00:20:08;;;;;;;15.10;6.00;;;;;;;17.07;68.43;100324.73;110200;1278;22144;-62
2023/06/08 00:22:39;;;;;;;14.60;6.10;;;;;;;17.02;68.66;100326.50;110073;1276;22227;-61
2023/06/08 00:25:10;;;;;;;18.60;6.10;;;;;;;16.96;68.79;100321.81;110129;1267;23173;-61
2023/06/08 00:27:41;;;;;;;19.40;6.60;;;;;;;16.94;68.80;100322.14;110194;1263;22318;-61
2023/06/08 00:30:15;;;;;;;17.50;6.80;;;;;;;16.91;69.04;100325.98;110137;1262;22364;-63
2023/06/08 00:32:46;;;;;;;17.90;7.30;;;;;;;16.84;69.18;100325.98;110166;1264;22203;-61
2023/06/08 00:35:17;;;;;;;18.90;6.50;;;;;;;16.76;69.48;100326.06;110122;1273;22357;-61
2023/06/08 00:37:48;;;;;;;17.30;7.00;;;;;;;16.68;69.83;100329.48;110159;1271;22208;-61
2023/06/08 00:40:22;;;;;;;24.60;7.10;;;;;;;16.60;70.09;100326.30;110121;1273;22377;-62
2023/06/08 00:42:53;;;;;;;18.00;6.90;;;;;;;16.56;69.96;100320.52;110159;1267;22249;-60
2023/06/08 00:45:24;;;;;;;16.50;6.20;;;;;;;16.50;70.18;100325.09;110175;1271;22209;-60
2023/06/08 00:47:56;;;;;;;13.10;5.40;;;;;;;16.46;70.12;100325.20;105984;1271;5435725;-61
2023/06/08 00:50:28;;;;;;;12.90;6.60;;;;;;;16.40;70.40;100324.34;110179;1264;22179;-60
2023/06/08 00:53:00;;;;;;;18.10;6.90;;;;;;;16.36;70.46;100328.70;110143;1273;22196;-60
2023/06/08 00:55:33;;;;;;;16.90;6.70;;;;;;;16.35;70.31;100323.34;110181;1270;23252;-61
2023/06/08 00:58:04;;;;;;;15.20;5.90;;;;;;;16.28;70.53;100319.61;110179;1267;22151;-61
2023/06/08 01:00:35;;;;;;;14.80;7.00;;;;;;;16.21;70.76;100317.59;110150;1267;22233;-60
2023/06/08 01:03:06;;;;;;;18.00;5.50;;;;;;;16.14;70.77;100319.18;110180;1271;22142;-59
2023/06/08 01:05:38;;;;;;;17.60;6.80;;;;;;;16.06;71.12;100320.64;110151;1270;23075;-60
2023/06/08 01:08:17;;;;;;;14.30;6.20;;;;;;;16.00;71.21;100320.74;110190;1271;22230;-61
2023/06/08 01:10:57;;;;;;;16.40;6.80;;;;;;;16.00;71.17;100322.19;110206;1271;22271;-58
2023/06/08 01:13:38;;;;;;;15.60;6.70;;;;;;;15.97;71.28;100321.16;110020;1264;23063;-61
2023/06/08 01:16:15;;;;;;;19.00;6.60;;;;;;;15.94;71.16;100321.84;110159;1271;22185;-61
2023/06/08 01:18:47;;;;;;;17.00;6.40;;;;;;;15.91;71.61;100319.44;110173;1271;22301;-61
2023/06/08 01:21:37;;;;;;;20.90;7.00;;;;;;;15.84;71.89;100320.63;110187;1264;22313;-60
2023/06/08 01:24:13;;;;;;;19.40;6.80;;;;;;;15.79;71.92;100322.11;110030;1271;22441;-61
2023/06/08 01:26:49;;;;;;;14.50;6.80;;;;;;;15.73;72.01;100320.84;110056;1264;22204;-61
2023/06/08 01:29:25;;;;;;;15.20;6.10;;;;;;;15.67;72.26;100319.40;110162;1262;22350;-63
2023/06/08 01:31:56;;;;;;;20.90;7.40;;;;;;;15.61;72.32;100324.83;110173;1278;22226;-61
2023/06/08 01:34:27;;;;;;;16.80;7.00;;;;;;;15.57;72.49;100323.66;110204;1272;22443;-62
2023/06/08 01:37:07;;;;;;;16.50;7.20;;;;;;;15.52;72.59;100325.03;110107;1271;23123;-60
2023/06/08 01:39:48;;;;;;;15.10;6.30;;;;;;;15.46;72.80;100317.71;110205;1261;22276;-61
2023/06/08 01:42:20;;;;;;;16.30;7.10;;;;;;;15.39;73.06;100326.27;110181;1271;22142;-61
2023/06/08 01:45:00;;;;;;;14.10;6.20;;;;;;;15.34;73.16;100323.25;110151;1264;22327;-60
2023/06/08 01:47:39;;;;;;;16.70;7.30;;;;;;;15.30;73.11;100321.30;110065;1264;22324;-59
2023/06/08 01:50:11;;;;;;;15.60;7.00;;;;;;;15.25;73.31;100318.64;110226;1278;22249;-62
2023/06/08 01:52:43;;;;;;;17.20;6.20;;;;;;;15.22;73.22;100323.91;110196;1263;22181;-61
2023/06/08 01:55:18;;;;;;;15.30;6.60;;;;;;;15.19;73.60;100319.00;110201;1270;22406;-60
2023/06/08 01:57:50;;;;;;;16.50;6.50;;;;;;;15.14;73.66;100316.68;110188;1278;22164;-61
2023/06/08 02:00:22;;;;;;;15.70;7.00;;;;;;;15.10;73.82;100318.42;110176;1271;22327;-61
2023/06/08 02:02:53;;;;;;;15.50;6.60;;;;;;;15.10;73.78;100321.17;110097;1270;22122;-61
2023/06/08 02:05:24;;;;;;;15.50;7.10;;;;;;;15.04;74.08;100320.14;110184;1267;22185;-62
2023/06/08 02:07:55;;;;;;;16.20;7.50;;;;;;;15.01;74.10;100324.98;110153;1267;22183;-61
2023/06/08 02:10:28;;;;;;;17.00;6.80;;;;;;;14.98;74.04;100327.02;110200;1264;22217;-61
2023/06/08 02:12:59;;;;;;;13.90;6.10;;;;;;;14.98;74.41;100328.26;110159;1273;23032;-60
2023/06/08 02:15:30;;;;;;;16.10;7.60;;;;;;;14.92;74.67;100321.55;110174;1264;22369;-62
2023/06/08 02:18:01;;;;;;;17.50;7.60;;;;;;;14.87;74.83;100321.32;110186;1261;22239;-61
2023/06/08 02:20:33;;;;;;;14.30;6.90;;;;;;;14.84;74.70;100320.65;110210;1270;22147;-60
2023/06/08 02:23:04;;;;;;;14.30;6.20;;;;;;;14.79;74.74;100322.18;110155;1273;22103;-61
2023/06/08 02:25:35;;;;;;;15.80;7.50;;;;;;;14.74;75.13;100322.26;110199;1270;22233;-59
2023/06/08 02:28:06;;;;;;;18.70;7.10;;;;;;;14.68;75.17;100325.30;110159;1267;22200;-60
2023/06/08 02:30:36;;;;;;;16.70;7.20;;;;;;;14.63;75.17;100324.05;110165;1261;22204;-60
2023/06/08 02:33:07;;;;;;;15.20;6.70;;;;;;;14.56;75.24;100322.80;110169;1270;22199;-62
2023/06/08 02:35:40;;;;;;;15.60;6.40;;;;;;;14.49;75.37;100321.59;110162;1262;22347;-61
2023/06/08 02:38:11;;;;;;;15.90;7.30;;;;;;;14.45;75.39;100322.19;108092;1255;24877;-60
2023/06/08 02:40:42;;;;;;;16.90;6.80;;;;;;;14.43;75.50;100328.45;106263;1278;24280;-62
2023/06/08 02:43:14;;;;;;;15.20;6.50;;;;;;;14.38;75.66;100327.79;106156;1274;22724;-61
2023/06/08 02:45:45;;;;;;;16.40;5.90;;;;;;;14.32;75.55;100324.83;106102;1262;22638;-60
2023/06/08 02:48:16;;;;;;;13.40;6.00;;;;;;;14.26;75.64;100324.91;106154;1278;22559;-57
2023/06/08 02:50:47;;;;;;;12.50;6.20;;;;;;;14.22;75.73;100327.97;106176;1272;27583;-59
2023/06/08 02:53:18;;;;;;;15.00;6.00;;;;;;;14.18;75.91;100329.11;106145;1277;24280;-57
2023/06/08 02:55:50;;;;;;;15.40;6.20;;;;;;;14.13;75.98;100328.01;106202;1278;22532;-61
2023/06/08 02:58:23;;;;;;;14.20;6.00;;;;;;;14.08;76.01;100330.54;110157;1271;22943;-61
2023/06/08 03:00:54;;;;;;;14.90;6.30;;;;;;;14.06;76.27;100331.64;110161;1271;22673;-58
2023/06/08 03:03:27;;;;;;;15.80;6.20;;;;;;;14.04;76.22;100332.66;110186;1262;22193;-61
2023/06/08 03:06:00;;;;;;;11.60;5.70;;;;;;;14.01;76.40;100337.48;108289;1274;24265;-58
2023/06/08 03:08:31;;;;;;;13.40;6.50;;;;;;;13.97;76.66;100333.63;110196;1271;22314;-61
2023/06/08 03:11:02;;;;;;;14.50;6.40;;;;;;;13.96;76.77;100331.57;106216;1277;22716;-60
2023/06/08 03:13:34;;;;;;;15.60;5.90;;;;;;;13.94;77.04;100335.45;106171;1271;22523;-59
2023/06/08 03:16:05;;;;;;;17.50;6.90;;;;;;;13.92;77.10;100337.42;106151;1264;22669;-59
2023/06/08 03:18:36;;;;;;;15.80;6.50;;;;;;;13.89;77.27;100334.75;110166;1264;22180;-61
2023/06/08 03:21:11;;;;;;;14.10;6.00;;;;;;;13.87;77.39;100338.25;110211;1264;22206;-60
2023/06/08 03:23:44;;;;;;;13.30;6.60;;;;;;;13.86;77.61;100336.55;110180;1276;22381;-61
2023/06/08 03:26:15;;;;;;;14.00;6.90;;;;;;;13.84;78.33;100335.22;110201;1270;22383;-58
2023/06/08 03:28:46;;;;;;;10.60;5.50;;;;;;;13.84;78.43;100335.89;110172;1278;22205;-60
2023/06/08 03:31:16;;;;;;;16.80;6.20;;;;;;;13.85;78.43;100339.36;110180;1264;22237;-61
2023/06/08 03:33:47;;;;;;;16.60;6.00;;;;;;;13.85;78.43;100344.40;110180;1273;22364;-59
2023/06/08 03:36:19;;;;;;;13.80;5.70;;;;;;;13.85;78.57;100342.02;110199;1261;22264;-60
2023/06/08 03:38:49;;;;;;;15.20;6.30;;;;;;;13.85;78.93;100340.27;110203;1264;22386;-59
2023/06/08 03:41:21;;;;;;;12.60;6.50;;;;;;;13.87;79.26;100342.02;110149;1265;22337;-60
2023/06/08 03:43:52;;;;;;;14.50;6.30;;;;;;;13.89;79.35;100341.98;110177;1271;22269;-61
2023/06/08 03:46:22;;;;;;;15.80;7.30;;;;;;;13.90;79.36;100339.40;110185;1264;22301;-59
2023/06/08 03:48:54;;;;;;;21.80;9.40;;;;;;;13.94;79.37;100344.98;110101;1271;22198;-60
2023/06/08 03:51:25;;;;;;;18.50;9.90;;;;;;;13.99;79.92;100342.77;110172;1264;22188;-60
2023/06/08 03:53:55;;;;;;;18.40;9.20;;;;;;;14.02;80.27;100335.61;110176;1270;22207;-60
2023/06/08 03:56:27;;;;;;;18.20;9.60;;;;;;;14.04;80.39;100341.70;110179;1270;23299;-60
2023/06/08 03:58:57;;;;;;;16.70;8.20;;;;;;;14.08;80.45;100347.02;110183;1278;23086;-60
2023/06/08 04:01:30;;;;;;;20.00;10.20;;;;;;;14.12;80.54;100340.06;110166;1264;22192;-59
2023/06/08 04:04:01;;;;;;;20.90;10.30;;;;;;;14.17;80.72;100339.73;110180;1273;22164;-59
2023/06/08 04:06:33;;;;;;;21.10;10.00;;;;;;;14.22;80.74;100343.80;110194;1273;22796;-61
2023/06/08 04:09:04;;;;;;;18.80;10.00;;;;;;;14.29;80.39;100348.23;110240;1270;22990;-60
2023/06/08 04:11:34;;;;;;;23.60;11.90;;;;;;;14.37;80.72;100350.04;110164;1270;22170;-60
2023/06/08 04:14:06;;;;;;;20.60;12.60;;;;;;;14.46;80.99;100349.35;110203;1271;22280;-59
2023/06/08 04:16:41;;;;;;;23.30;13.30;;;;;;;14.54;81.28;100351.70;110153;1273;23305;-60
2023/06/08 04:19:12;;;;;;;21.70;12.60;;;;;;;14.63;81.47;100347.20;110201;1267;22230;-61
2023/06/08 04:21:43;;;;;;;22.60;13.10;;;;;;;14.71;81.60;100348.55;110180;1271;22219;-59
2023/06/08 04:24:16;;;;;;;23.40;12.90;;;;;;;14.79;81.30;100351.75;110149;1267;23146;-60
2023/06/08 04:26:46;;;;;;;24.60;13.80;;;;;;;14.87;81.88;100348.20;110206;1265;22167;-58
2023/06/08 04:29:18;;;;;;;23.30;13.50;;;;;;;14.93;82.30;100352.67;110255;1271;22370;-59
2023/06/08 04:31:49;;;;;;;24.10;14.90;;;;;;;15.02;82.19;100350.08;110214;1277;23387;-62
2023/06/08 04:34:20;;;;;;;26.40;14.40;;;;;;;15.09;82.66;100357.27;110175;1271;22239;-62
2023/06/08 04:36:51;;;;;;;27.50;14.00;;;;;;;15.17;82.76;100355.80;110153;1266;22937;-58
2023/06/08 04:39:22;;;;;;;24.40;13.40;;;;;;;15.24;82.69;100357.81;110189;1268;22168;-60
2023/06/08 04:41:55;;;;;;;26.80;13.50;;;;;;;15.35;82.72;100361.26;110167;1271;22251;-58
2023/06/08 04:44:31;;;;;;;24.90;15.70;;;;;;;15.46;82.95;100365.13;110179;1263;22281;-58
2023/06/08 04:47:02;;;;;;;27.00;14.60;;;;;;;15.56;83.11;100367.15;110193;1278;22203;-62
2023/06/08 04:49:34;;;;;;;26.10;14.90;;;;;;;15.68;83.20;100369.51;110180;1266;22349;-60
2023/06/08 04:52:06;;;;;;;23.40;14.50;;;;;;;15.79;83.05;100369.23;110147;1264;22338;-57
2023/06/08 04:54:37;;;;;;;24.80;14.90;;;;;;;15.90;83.18;100367.05;110162;1267;22153;-58
2023/06/08 04:57:09;;;;;;;27.80;15.20;;;;;;;16.02;83.24;100365.23;110167;1265;22217;-59
2023/06/08 04:59:40;;;;;;;24.80;13.90;;;;;;;16.15;83.15;100368.14;110219;1261;22945;-59
2023/06/08 05:02:11;;;;;;;25.10;13.60;;;;;;;16.28;82.77;100369.30;110170;1271;24307;-61
2023/06/08 05:04:42;;;;;;;25.00;15.10;;;;;;;16.45;83.04;100369.41;110242;1277;22379;-58
2023/06/08 05:07:12;;;;;;;23.60;13.10;;;;;;;16.61;82.95;100370.52;110168;1264;22171;-58
2023/06/08 05:09:43;;;;;;;23.20;14.70;;;;;;;16.73;82.91;100373.19;110211;1261;22195;-61
2023/06/08 05:12:14;;;;;;;23.60;15.50;;;;;;;16.80;82.76;100374.13;110221;1271;22981;-59
2023/06/08 05:14:45;;;;;;;23.80;14.70;;;;;;;16.91;82.86;100376.96;110230;1273;22204;-60
2023/06/08 05:17:16;;;;;;;25.20;15.30;;;;;;;17.01;82.65;100377.06;110239;1261;23659;-59
2023/06/08 05:19:47;;;;;;;28.80;16.30;;;;;;;17.18;82.86;100373.33;110213;1277;22348;-60
2023/06/08 05:22:18;;;;;;;26.30;15.00;;;;;;;17.36;82.39;100378.25;110180;1264;22927;-62
2023/06/08 05:24:49;;;;;;;26.30;13.50;;;;;;;17.45;81.88;100379.82;110171;1271;22273;-60
2023/06/08 05:27:20;;;;;;;27.90;13.40;;;;;;;17.51;81.75;100379.77;110211;1267;22167;-61
2023/06/08 05:29:51;;;;;;;24.50;14.30;;;;;;;17.62;82.10;100374.04;110179;1264;22419;-60
2023/06/08 05:32:22;;;;;;;22.50;13.60;;;;;;;17.84;81.94;100372.06;110148;1271;22853;-58
2023/06/08 05:34:53;;;;;;;25.90;14.30;;;;;;;18.01;81.55;100368.28;107683;1272;22548;-58
2023/06/08 05:37:24;;;;;;;24.20;13.90;;;;;;;18.12;81.36;100368.69;106177;1277;25416;-58
2023/06/08 05:39:54;;;;;;;23.30;12.90;;;;;;;18.24;81.42;100368.92;106227;1277;22523;-57
2023/06/08 05:42:25;;;;;;;19.60;12.00;;;;;;;18.39;81.00;100368.40;106279;1262;23063;-61
2023/06/08 05:44:56;;;;;;;23.50;12.40;;;;;;;18.54;80.70;100361.95;106078;1276;25347;-58
2023/06/08 05:47:27;;;;;;;25.40;13.50;;;;;;;18.63;80.26;100359.85;106225;1264;22552;-60
2023/06/08 05:49:58;;;;;;;20.40;12.60;;;;;;;18.66;80.15;100360.58;106074;1271;22495;-59
2023/06/08 05:52:29;;;;;;;18.30;10.20;;;;;;;18.69;80.37;100359.77;106240;1277;22523;-60
2023/06/08 05:55:01;;;;;;;21.50;11.50;;;;;;;18.81;80.45;100361.33;110142;1271;22241;-59
2023/06/08 05:57:32;;;;;;;21.70;10.80;;;;;;;18.93;80.03;100360.13;110156;1272;22399;-60
2023/06/08 06:00:06;;;;;;;20.20;12.10;;;;;;;19.08;79.62;100362.91;110150;1271;22333;-59
2023/06/08 06:02:36;;;;;;;20.90;11.10;;;;;;;19.20;79.38;100364.13;110116;1264;22168;-59
2023/06/08 06:05:09;;;;;;;21.10;10.90;;;;;;;19.39;79.03;100358.27;109475;1271;22516;-60
2023/06/08 06:07:40;;;;;;;18.30;10.30;;;;;;;19.49;78.20;100363.98;110154;1278;23283;-60
2023/06/08 06:10:14;;;;;;;20.00;10.10;;;;;;;19.62;77.89;100363.42;110236;1268;22150;-62
2023/06/08 06:12:46;;;;;;;20.00;8.00;;;;;;;19.75;77.50;100361.31;110149;1264;22174;-61
2023/06/08 06:15:17;;;;;;;15.50;7.60;;;;;;;19.92;77.47;100362.36;110155;1262;22180;-61
2023/06/08 06:17:49;;;;;;;13.90;7.10;;;;;;;20.10;76.68;100368.45;110155;1271;22173;-61
2023/06/08 06:20:20;;;;;;;17.20;8.80;;;;;;;20.26;76.21;100370.31;110150;1262;23132;-64
2023/06/08 06:22:50;;;;;;;16.20;7.30;;;;;;;20.37;75.83;100370.60;110114;1278;22300;-62
2023/06/08 06:25:21;;;;;;;19.30;8.10;;;;;;;20.53;75.32;100367.52;110157;1271;22245;-61
2023/06/08 06:27:53;;;;;;;17.70;8.70;;;;;;;20.66;74.91;100369.67;110164;1264;22939;-62
2023/06/08 06:30:24;;;;;;;18.20;8.90;;;;;;;20.74;74.41;100372.30;110112;1271;22290;-61
2023/06/08 06:32:55;;;;;;;17.10;7.70;;;;;;;20.83;74.54;100376.96;110124;1276;22415;-62
2023/06/08 06:35:25;;;;;;;16.60;7.90;;;;;;;20.94;73.97;100375.79;110137;1271;22347;-61
2023/06/08 06:37:56;;;;;;;18.90;9.90;;;;;;;21.04;73.12;100379.03;110136;1278;22496;-61
2023/06/08 06:40:27;;;;;;;17.30;8.90;;;;;;;21.07;72.89;100379.99;110150;1271;22981;-61
2023/06/08 06:42:58;;;;;;;15.60;8.10;;;;;;;21.13;72.77;100384.09;110106;1261;22161;-64
2023/06/08 06:45:30;;;;;;;17.80;7.60;;;;;;;21.23;72.51;100379.44;110195;1265;22329;-64
2023/06/08 06:48:02;;;;;;;14.40;7.10;;;;;;;21.35;72.17;100379.12;110151;1267;22251;-60
2023/06/08 06:50:33;;;;;;;17.30;9.00;;;;;;;21.45;71.68;100378.06;106282;1274;24249;-59
2023/06/08 06:53:04;;;;;;;17.00;6.90;;;;;;;21.52;71.33;100375.98;106333;1277;25422;-57
2023/06/08 06:55:35;;;;;;;16.90;8.00;;;;;;;21.61;70.72;100371.86;106078;1271;22537;-59
2023/06/08 06:58:06;;;;;;;14.50;7.60;;;;;;;21.71;70.60;100373.56;106204;1255;24348;-60
2023/06/08 07:00:39;;;;;;;14.20;6.70;;;;;;;21.80;69.90;100373.45;106265;1265;25243;-61
2023/06/08 07:03:11;;;;;;;13.90;7.00;;;;;;;21.91;69.44;100374.02;106061;1271;22508;-60
2023/06/08 07:05:42;;;;;;;20.80;7.70;;;;;;;21.99;68.84;100378.69;110201;1265;22935;-60
2023/06/08 07:08:13;;;;;;;15.80;8.10;;;;;;;22.00;68.42;100378.36;110193;1270;22229;-60
2023/06/08 07:10:44;;;;;;;16.90;6.90;;;;;;;22.03;68.30;100382.02;110183;1272;22332;-60
2023/06/08 07:13:15;;;;;;;14.90;6.80;;;;;;;22.09;67.59;100379.46;110211;1271;22180;-60
2023/06/08 07:15:46;;;;;;;16.30;7.30;;;;;;;22.12;67.24;100380.83;110234;1262;22283;-60
2023/06/08 07:18:17;;;;;;;17.00;8.20;;;;;;;22.16;67.17;100380.09;110173;1271;22323;-61
2023/06/08 07:20:49;;;;;;;13.70;7.20;;;;;;;22.18;66.99;100377.15;110159;1274;22432;-60
2023/06/08 07:23:20;;;;;;;14.60;6.20;;;;;;;22.28;66.45;100382.39;110184;1272;22276;-61
2023/06/08 07:25:51;;;;;;;12.90;6.40;;;;;;;22.39;66.42;100381.86;110207;1277;22378;-60
2023/06/08 07:28:22;;;;;;;14.70;7.20;;;;;;;22.52;65.83;100381.61;110096;1267;22247;-58
2023/06/08 07:30:53;;;;;;;16.40;7.00;;;;;;;22.59;65.57;100381.33;110181;1271;23822;-59
2023/06/08 07:33:24;;;;;;;12.70;5.70;;;;;;;22.67;64.95;100380.73;110221;1262;22227;-57
2023/06/08 07:35:55;;;;;;;12.00;5.40;;;;;;;22.76;64.66;100382.01;110211;1261;22794;-59
2023/06/08 07:38:26;;;;;;;20.80;8.10;;;;;;;22.85;64.52;100375.42;110183;1262;22295;-58
2023/06/08 07:40:57;;;;;;;15.60;7.30;;;;;;;22.95;64.15;100372.96;110185;1264;22151;-56
2023/06/08 07:43:28;;;;;;;15.20;8.00;;;;;;;23.00;63.84;100371.90;110101;1262;23403;-65
2023/06/08 07:45:59;;;;;;;13.10;6.80;;;;;;;23.07;63.73;100366.17;110160;1262;22204;-59
2023/06/08 07:48:30;;;;;;;12.90;6.20;;;;;;;23.14;63.37;100368.97;110161;1268;23285;-59
2023/06/08 07:51:01;;;;;;;14.50;6.40;;;;;;;23.23;63.20;100362.63;110130;1265;22172;-60
2023/06/08 07:53:38;;;;;;;11.40;5.10;;;;;;;23.34;62.44;100359.73;110112;1270;23280;-58
2023/06/08 07:56:09;;;;;;;11.50;4.90;;;;;;;23.41;61.61;100362.67;110101;1278;22238;-60
2023/06/08 07:58:40;;;;;;;13.70;5.40;;;;;;;23.48;61.61;100363.08;110142;1271;22283;-59
2023/06/08 08:01:11;;;;;;;10.50;4.70;;;;;;;23.57;61.14;100360.39;109987;1271;23114;-59
2023/06/08 08:03:42;;;;;;;10.60;3.90;;;;;;;23.70;61.04;100360.38;110080;1261;22288;-60
2023/06/08 08:06:13;;;;;;;10.20;4.60;;;;;;;23.83;60.67;100356.52;110116;1271;22286;-60
2023/06/08 08:08:44;;;;;;;10.20;4.00;;;;;;;23.95;59.85;100362.56;110202;1267;22212;-62
2023/06/08 08:11:15;;;;;;;10.80;4.10;;;;;;;24.02;58.62;100359.02;110100;1265;22383;-61
2023/06/08 08:13:46;;;;;;;10.80;3.90;;;;;;;23.97;58.14;100358.55;109143;1277;22540;-61
2023/06/08 08:16:18;;;;;;;11.10;3.90;;;;;;;23.99;58.45;100359.38;106079;1264;22520;-62
2023/06/08 08:18:49;;;;;;;10.30;3.80;;;;;;;24.05;57.97;100357.50;110108;1271;24614;-61
2023/06/08 08:21:20;;;;;;;8.90;3.80;;;;;;;24.19;57.56;100359.86;110112;1267;22125;-61
2023/06/08 08:23:51;;;;;;;7.50;2.80;;;;;;;24.31;57.13;100359.58;110122;1264;22196;-61
2023/06/08 08:26:22;;;;;;;7.00;2.80;;;;;;;24.40;57.04;100355.27;109939;1271;22351;-62
2023/06/08 08:28:56;;;;;;;8.20;3.20;;;;;;;24.54;56.31;100357.99;110061;1271;22219;-62
2023/06/08 08:31:48;;;;;;;8.50;3.20;;;;;;;24.64;55.46;100355.56;110112;1272;23086;-62
2023/06/08 08:34:19;;;;;;;8.10;3.20;;;;;;;24.71;55.07;100358.37;110115;1271;22331;-63
2023/06/08 08:36:50;;;;;;;8.90;3.50;;;;;;;24.74;54.63;100354.96;110130;1271;22300;-62
2023/06/08 08:39:21;;;;;;;7.30;3.30;;;;;;;24.82;54.68;100354.20;110078;1271;22178;-62
2023/06/08 08:41:56;;;;;;;9.60;3.40;;;;;;;24.92;54.34;100353.10;110078;1265;22224;-63
2023/06/08 08:44:29;;;;;;;8.80;3.90;;;;;;;25.04;54.24;100348.75;110131;1263;22212;-63
2023/06/08 08:47:03;;;;;;;7.90;3.00;;;;;;;25.18;54.03;100346.05;110147;1271;23013;-63
2023/06/08 08:49:40;;;;;;;11.20;2.90;;;;;;;25.34;53.33;100349.15;110053;1264;22344;-63
2023/06/08 08:52:11;;;;;;;9.50;3.70;;;;;;;25.44;53.32;100348.85;110114;1271;23020;-63
2023/06/08 08:54:57;;;;;;;8.50;3.30;;;;;;;25.55;52.67;100346.64;110111;1267;22203;-63
2023/06/08 08:57:31;;;;;;;11.90;2.80;;;;;;;25.62;51.65;100349.04;110121;1262;22389;-62
2023/06/08 09:00:03;;;;;;;8.20;3.10;;;;;;;25.67;51.38;100345.84;110136;1265;23168;-63
2023/06/08 09:02:36;;;;;;;9.10;2.50;;;;;;;25.74;50.87;100344.88;110110;1271;22347;-63
2023/06/08 09:05:08;;;;;;;8.40;2.40;;;;;;;25.79;50.33;100342.44;110152;1267;22274;-63
2023/06/08 09:07:39;;;;;;;9.20;2.20;;;;;;;25.87;49.74;100342.52;110147;1278;22191;-63
2023/06/08 09:10:19;;;;;;;7.00;2.40;;;;;;;25.86;49.03;100345.05;110131;1266;22181;-63
2023/06/08 09:12:49;;;;;;;;;;;;;;;25.76;47.41;100339.59;110111;1276;22361;-62
2023/06/08 09:15:27;;;;;;;6.50;2.20;;;;;;;25.58;47.95;100337.36;110091;1271;23094;-62
2023/06/08 09:18:02;;;;;;;4.60;1.70;;;;;;;25.54;47.35;100327.09;110181;1266;23327;-63
2023/06/08 09:20:34;;;;;;;7.80;1.90;;;;;;;25.62;47.97;100335.96;110127;1270;22332;-63
2023/06/08 09:23:17;;;;;;;5.70;1.50;;;;;;;25.72;47.12;100337.98;110087;1274;22259;-62
2023/06/08 09:25:48;;;;;;;6.30;1.70;;;;;;;25.77;46.35;100335.16;110181;1272;23426;-63
2023/06/08 09:28:24;;;;;;;4.20;1.40;;;;;;;25.78;45.75;100330.09;110077;1271;22279;-62
2023/06/08 09:30:57;;;;;;;6.20;1.60;;;;;;;25.84;45.78;100332.25;110139;1268;22656;-62
2023/06/08 09:33:29;;;;;;;7.10;1.20;;;;;;;25.90;45.07;100327.52;110119;1268;22332;-63
2023/06/08 09:36:15;;;;;;;5.50;1.50;;;;;;;25.96;44.97;100323.80;110153;1264;22340;-62
2023/06/08 09:38:46;;;;;;;5.30;1.40;;;;;;;26.07;44.59;100323.56;107948;1271;25305;-62
2023/06/08 09:41:21;;;;;;;7.40;1.30;;;;;;;26.11;43.82;100323.39;105811;1256;24231;-69
2023/06/08 09:43:53;;;;;;;5.40;1.30;;;;;;;26.12;43.27;100322.47;110113;1271;22235;-62
2023/06/08 09:46:41;;;;;;;6.20;1.40;;;;;;;26.17;42.44;100313.69;110118;1263;22208;-62
2023/06/08 09:49:13;;;;;;;4.20;1.30;;;;;;;26.20;41.90;100314.67;110007;1274;23017;-62
2023/06/08 09:51:49;;;;;;;5.10;1.20;;;;;;;26.26;41.57;100310.23;109996;1264;22388;-62
2023/06/08 09:54:21;;;;;;;5.00;1.50;;;;;;;26.30;40.94;100305.39;109988;1274;22232;-61
2023/06/08 09:56:57;;;;;;;5.90;2.00;;;;;;;26.31;41.22;100305.53;110029;1274;22799;-62
2023/06/08 09:59:37;;;;;;;6.00;1.60;;;;;;;26.34;41.38;100308.33;110009;1273;23079;-62
2023/06/08 10:02:33;;;;;;;6.00;1.50;;;;;;;26.37;41.34;100306.23;110004;1268;22205;-62
2023/06/08 10:05:12;;;;;;;6.40;1.20;;;;;;;26.39;40.88;100301.02;110074;1279;22929;-62
2023/06/08 10:07:48;;;;;;;5.30;1.40;;;;;;;26.45;39.68;100303.48;110092;1276;22930;-62
2023/06/08 10:10:23;;;;;;;7.60;1.40;;;;;;;26.41;38.74;100301.73;110014;1270;22328;-63
2023/06/08 10:12:56;;;;;;;5.50;1.40;;;;;;;26.41;39.69;100298.05;109970;1269;22204;-61
2023/06/08 10:15:29;;;;;;;5.90;1.30;;;;;;;26.51;39.27;100293.86;110000;1265;23012;-61
2023/06/08 10:18:02;;;;;;;4.70;1.30;;;;;;;26.61;38.95;100293.37;110025;1268;22333;-61
2023/06/08 10:20:34;;;;;;;5.50;1.20;;;;;;;26.63;38.85;100292.50;110029;1279;22986;-61
2023/06/08 10:23:06;;;;;;;5.50;1.30;;;;;;;26.66;38.23;100291.64;109976;1261;22134;-61
2023/06/08 10:25:38;;;;;;;5.10;1.20;;;;;;;26.75;38.67;100291.16;109763;1271;22265;-61
2023/06/08 10:28:10;;;;;;;6.80;1.40;;;;;;;26.85;38.38;100284.17;110030;1268;22501;-61
2023/06/08 10:30:42;;;;;;;5.40;1.50;;;;;;;26.89;38.20;100284.45;109354;1268;25355;-61
2023/06/08 10:33:16;;;;;;;5.30;1.40;;;;;;;26.96;38.40;100276.41;105977;1274;25481;-61
2023/06/08 10:36:08;;;;;;;9.60;1.40;;;;;;;27.03;38.55;100272.08;105879;1263;23940;-60
2023/06/08 10:38:54;;;;;;;4.90;1.40;;;;;;;27.16;38.65;100274.55;106034;1258;22579;-62
2023/06/08 10:44:41;;;;;;;5.20;1.50;;;;;;;27.30;38.78;100264.94;105893;1306;545408;-61
2023/06/08 10:47:15;;;;;;;8.10;1.50;;;;;;;27.38;38.46;100262.16;109191;1284;22194;-62
2023/06/08 10:49:55;;;;;;;5.60;1.60;;;;;;;27.45;38.46;100258.99;109312;1280;22306;-62
2023/06/08 10:52:26;;;;;;;7.30;1.70;;;;;;;27.53;38.46;100261.05;109169;1280;22492;-62
2023/06/08 10:55:00;;;;;;;6.20;1.40;;;;;;;27.60;38.26;100257.16;109147;1283;22200;-63
2023/06/08 10:57:41;;;;;;;6.20;1.50;;;;;;;27.63;38.22;100253.67;105059;1277;5490381;-62
2023/06/08 11:00:45;;;;;;;4.40;1.50;;;;;;;27.74;38.46;100251.14;109358;1280;23252;-63
2023/06/08 11:03:21;;;;;;;7.30;2.00;;;;;;;27.86;38.28;100247.42;109401;1271;22344;-62
2023/06/08 11:05:53;;;;;;;4.40;1.20;;;;;;;27.92;38.15;100248.03;109394;1280;22214;-63
2023/06/08 11:08:25;;;;;;;9.30;1.70;;;;;;;27.96;37.76;100246.90;109421;1283;22377;-62
2023/06/08 11:10:56;;;;;;;8.30;1.60;;;;;;;27.96;37.06;100244.96;109708;1279;22174;-62
2023/06/08 11:13:28;;;;;;;5.70;1.50;;;;;;;27.95;37.09;100245.69;109706;1276;22219;-62
2023/06/08 11:16:00;;;;;;;5.70;1.60;;;;;;;27.91;36.67;100239.55;109597;1276;22236;-63
2023/06/08 11:18:32;;;;;;;6.20;1.60;;;;;;;27.82;36.93;100236.84;107849;1276;25416;-62
2023/06/08 11:21:04;;;;;;;7.40;1.60;;;;;;;27.79;36.91;100238.86;109616;1279;22750;-63
2023/06/08 11:23:37;;;;;;;8.50;1.50;;;;;;;27.72;37.04;100229.45;109676;1274;22143;-63
2023/06/08 11:26:12;;;;;;;5.40;1.60;;;;;;;27.66;37.10;100225.66;109999;1271;49592;-63
2023/06/08 11:28:46;;;;;;;8.50;1.80;;;;;;;27.63;37.13;100224.14;109929;1265;22346;-62
2023/06/08 11:31:19;;;;;;;9.00;1.50;;;;;;;27.60;37.35;100223.92;109943;1273;22430;-62
2023/06/08 11:33:56;;;;;;;5.50;1.50;;;;;;;27.60;37.23;100219.63;109981;1273;22859;-61
2023/06/08 11:36:28;;;;;;;8.70;1.60;;;;;;;27.61;36.75;100221.69;109833;1276;22217;-62
2023/06/08 11:39:00;;;;;;;7.50;2.10;;;;;;;27.64;37.12;100214.06;109982;1277;22287;-61